createdAt,value
2018-07-14T00:02:26.734Z,100235.00
2018-07-14T00:04:54.616Z,100237.00
2018-07-14T00:07:22.240Z,100237.00
2018-07-14T00:09:49.872Z,100239.00
2018-07-14T00:12:17.741Z,100246.00
2018-07-14T00:14:45.365Z,100243.00
2018-07-14T00:17:12.969Z,100252.00
2018-07-14T00:19:40.837Z,100255.00
2018-07-14T00:22:08.617Z,100251.00
2018-07-14T00:24:36.212Z,100251.00
2018-07-14T00:27:04.354Z,100249.00
2018-07-14T00:29:32.222Z,100252.00
2018-07-14T00:31:59.782Z,100249.00
2018-07-14T00:34:27.437Z,100256.00
2018-07-14T00:36:55.052Z,100259.00
2018-07-14T00:39:22.622Z,100261.00
2018-07-14T00:41:50.569Z,100263.00
2018-07-14T00:44:18.157Z,100268.00
2018-07-14T00:46:45.715Z,100264.00
2018-07-14T00:49:13.563Z,100261.00
2018-07-14T00:51:41.150Z,100264.00
2018-07-14T00:54:08.785Z,100264.00
2018-07-14T00:56:36.569Z,100269.00
2018-07-14T00:59:04.326Z,100267.00
2018-07-14T01:01:32.263Z,100269.00
2018-07-14T01:04:00.668Z,100265.00
2018-07-14T01:06:28.676Z,100261.00
2018-07-14T01:08:56.231Z,100261.00
2018-07-14T01:11:23.803Z,100262.00
2018-07-14T01:13:51.381Z,100263.00
2018-07-14T01:16:18.956Z,100262.00
2018-07-14T01:18:46.905Z,100265.00
2018-07-14T01:21:14.532Z,100268.00
2018-07-14T01:23:42.108Z,100272.00
2018-07-14T01:26:09.820Z,100271.00
2018-07-14T01:28:37.747Z,100272.00
2018-07-14T01:31:05.621Z,100276.00
2018-07-14T01:33:33.197Z,100275.00
2018-07-14T01:36:00.844Z,100275.00
2018-07-14T01:38:28.612Z,100276.00
2018-07-14T01:40:56.173Z,100276.00
2018-07-14T01:43:23.753Z,100279.00
2018-07-14T01:45:51.555Z,100277.00
2018-07-14T01:48:19.129Z,100273.00
2018-07-14T01:50:46.704Z,100270.00
2018-07-14T01:53:14.643Z,100269.00
2018-07-14T01:55:42.190Z,100267.00
2018-07-14T01:58:09.756Z,100262.00
2018-07-14T02:00:37.639Z,100262.00
2018-07-14T02:03:05.280Z,100267.00
2018-07-14T02:05:32.886Z,100265.00
2018-07-14T02:08:00.460Z,100269.00
2018-07-14T02:10:28.041Z,100270.00
2018-07-14T02:12:55.846Z,100266.00
2018-07-14T02:15:23.412Z,100271.00
2018-07-14T02:17:50.973Z,100265.00
2018-07-14T02:20:18.787Z,100268.00
2018-07-14T02:22:46.372Z,100275.00
2018-07-14T02:25:13.949Z,100277.00
2018-07-14T02:27:41.635Z,100281.00
2018-07-14T02:30:09.227Z,100280.00
2018-07-14T02:32:36.859Z,100276.00
2018-07-14T02:35:04.791Z,100273.00
2018-07-14T02:37:32.355Z,100274.00
2018-07-14T02:39:59.932Z,100275.00
2018-07-14T02:42:27.732Z,100277.00
2018-07-14T02:44:55.307Z,100283.00
2018-07-14T02:47:25.441Z,100280.00
2018-07-14T02:49:53.257Z,100275.00
2018-07-14T02:52:20.829Z,100281.00
2018-07-14T02:54:48.428Z,100282.00
2018-07-14T02:57:16.244Z,100280.00
2018-07-14T02:59:43.938Z,100277.00
2018-07-14T03:02:11.445Z,100280.00
2018-07-14T03:04:39.458Z,100278.00
2018-07-14T03:07:07.040Z,100277.00
2018-07-14T03:09:34.585Z,100281.00
2018-07-14T03:12:02.393Z,100277.00
2018-07-14T03:14:29.975Z,100277.00
2018-07-14T03:16:57.510Z,100279.00
2018-07-14T03:19:25.447Z,100280.00
2018-07-14T03:21:53.142Z,100285.00
2018-07-14T03:24:20.724Z,100285.00
2018-07-14T03:26:48.760Z,100287.00
2018-07-14T03:29:16.410Z,100299.00
2018-07-14T03:31:43.965Z,100296.00
2018-07-14T03:34:11.988Z,100294.00
2018-07-14T03:36:39.601Z,100296.00
2018-07-14T03:39:07.131Z,100300.00
2018-07-14T03:41:34.776Z,100297.00
2018-07-14T03:44:02.347Z,100297.00
2018-07-14T03:46:29.963Z,100296.00
2018-07-14T03:48:57.979Z,100298.00
2018-07-14T03:51:25.540Z,100296.00
2018-07-14T03:53:53.114Z,100295.00
2018-07-14T03:56:20.991Z,100294.00
2018-07-14T03:58:48.591Z,100296.00
2018-07-14T04:01:16.192Z,100299.00
2018-07-14T04:03:43.796Z,100297.00
2018-07-14T04:06:11.360Z,100304.00
2018-07-14T04:08:38.955Z,100302.00
2018-07-14T04:11:06.785Z,100303.00
2018-07-14T04:13:34.492Z,100300.00
2018-07-14T04:16:02.432Z,100306.00
2018-07-14T04:18:30.229Z,100309.00
2018-07-14T04:20:57.808Z,100308.00
2018-07-14T04:23:25.636Z,100314.00
2018-07-14T04:25:53.223Z,100317.00
2018-07-14T04:28:21.069Z,100319.00
2018-07-14T04:30:48.635Z,100314.00
2018-07-14T04:33:16.196Z,100316.00
2018-07-14T04:35:44.072Z,100317.00
2018-07-14T04:38:11.632Z,100322.00
2018-07-14T04:40:39.202Z,100323.00
2018-07-14T04:43:06.825Z,100321.00
2018-07-14T04:45:34.400Z,100318.00
2018-07-14T04:48:02.707Z,100319.00
2018-07-14T04:50:30.391Z,100322.00
2018-07-14T04:52:58.044Z,100327.00
2018-07-14T04:55:25.663Z,100314.00
2018-07-14T04:57:53.232Z,100321.00
2018-07-14T05:00:20.817Z,100319.00
2018-07-14T05:02:48.623Z,100323.00
2018-07-14T05:05:23.130Z,100328.00
2018-07-14T05:07:51.013Z,100323.00
2018-07-14T05:10:18.927Z,100327.00
2018-07-14T05:12:46.756Z,100325.00
2018-07-14T05:15:14.325Z,100322.00
2018-07-14T05:17:42.606Z,100326.00
2018-07-14T05:20:10.364Z,100322.00
2018-07-14T05:22:37.951Z,100320.00
2018-07-14T05:25:05.540Z,100322.00
2018-07-14T05:27:33.141Z,100323.00
2018-07-14T05:30:00.704Z,100327.00
2018-07-14T05:32:30.639Z,100326.00
2018-07-14T05:34:58.216Z,100330.00
2018-07-14T05:37:25.805Z,100332.00
2018-07-14T05:39:53.437Z,100329.00
2018-07-14T05:42:21.044Z,100339.00
2018-07-14T05:44:48.617Z,100337.00
2018-07-14T05:47:16.454Z,100337.00
2018-07-14T05:49:44.021Z,100337.00
2018-07-14T05:52:11.648Z,100330.00
2018-07-14T05:54:39.460Z,100337.00
2018-07-14T05:57:07.075Z,100337.00
2018-07-14T05:59:34.676Z,100332.00
2018-07-14T06:02:02.752Z,100329.00
2018-07-14T06:04:30.120Z,100329.00
2018-07-14T06:06:57.776Z,100333.00
2018-07-14T06:09:25.662Z,100337.00
2018-07-14T06:11:54.509Z,100339.00
2018-07-14T06:14:28.774Z,100334.00
2018-07-14T06:16:56.023Z,100334.00
2018-07-14T06:19:26.360Z,100338.00
2018-07-14T06:21:54.268Z,100341.00
2018-07-14T06:24:22.100Z,100336.00
2018-07-14T06:26:51.586Z,100336.00
2018-07-14T06:29:19.330Z,100344.00
2018-07-14T06:31:46.936Z,100341.00
2018-07-14T06:34:14.824Z,100336.00
2018-07-14T06:36:42.797Z,100341.00
2018-07-14T06:39:10.361Z,100340.00
2018-07-14T06:41:37.946Z,100344.00
2018-07-14T06:44:05.756Z,100346.00
2018-07-14T06:46:33.344Z,100340.00
2018-07-14T06:49:01.003Z,100340.00
2018-07-14T06:51:28.641Z,100336.00
2018-07-14T06:53:56.243Z,100344.00
2018-07-14T06:56:23.940Z,100348.00
2018-07-14T06:58:51.612Z,100352.00
2018-07-14T07:01:19.202Z,100354.00
2018-07-14T07:03:46.921Z,100356.00
2018-07-14T07:06:15.143Z,100344.00
2018-07-14T07:08:42.753Z,100348.00
2018-07-14T07:11:12.172Z,100351.00
2018-07-14T07:13:39.808Z,100345.00
2018-07-14T07:16:07.760Z,100340.00
2018-07-14T07:18:35.648Z,100340.00
2018-07-14T07:21:03.228Z,100338.00
2018-07-14T07:23:31.146Z,100340.00
2018-07-14T07:25:58.995Z,100345.00
2018-07-14T07:28:26.764Z,100337.00
2018-07-14T07:30:54.342Z,100344.00
2018-07-14T07:33:22.331Z,100336.00
2018-07-14T07:35:50.001Z,100337.00
2018-07-14T07:38:18.508Z,100342.00
2018-07-14T07:40:46.341Z,100344.00
2018-07-14T07:43:14.119Z,100336.00
2018-07-14T07:45:41.704Z,100339.00
2018-07-14T07:48:09.647Z,100338.00
2018-07-14T07:50:37.279Z,100336.00
2018-07-14T07:53:05.116Z,100336.00
2018-07-14T07:55:32.758Z,100336.00
2018-07-14T07:58:00.437Z,100334.00
2018-07-14T08:00:28.040Z,100328.00
2018-07-14T08:02:55.588Z,100330.00
2018-07-14T08:05:23.459Z,100334.00
2018-07-14T08:07:51.070Z,100335.00
2018-07-14T08:10:18.693Z,100333.00
2018-07-14T08:12:46.500Z,100331.00
2018-07-14T08:15:14.064Z,100329.00
2018-07-14T08:17:42.328Z,100329.00
2018-07-14T08:20:10.024Z,100331.00
2018-07-14T08:22:37.708Z,100334.00
2018-07-14T08:25:05.317Z,100327.00
2018-07-14T08:27:33.203Z,100330.00
2018-07-14T08:30:00.779Z,100324.00
2018-07-14T08:32:29.464Z,100328.00
2018-07-14T08:34:57.269Z,100317.00
2018-07-14T08:37:24.847Z,100315.00
2018-07-14T08:39:52.416Z,100328.00
2018-07-14T08:42:20.017Z,100322.00
2018-07-14T08:44:47.559Z,100326.00
2018-07-14T08:47:15.610Z,100327.00
2018-07-14T08:49:43.154Z,100328.00
2018-07-14T08:52:10.706Z,100320.00
2018-07-14T08:54:38.560Z,100326.00
2018-07-14T08:57:06.311Z,100324.00
2018-07-14T08:59:34.328Z,100321.00
2018-07-14T09:02:01.883Z,100320.00
2018-07-14T09:04:29.456Z,100324.00
2018-07-14T09:06:57.357Z,100321.00
2018-07-14T09:09:25.200Z,100324.00
2018-07-14T09:11:52.775Z,100320.00
2018-07-14T09:14:20.375Z,100318.00
2018-07-14T09:16:48.229Z,100319.00
2018-07-14T09:19:15.945Z,100310.00
2018-07-14T09:21:43.537Z,100312.00
2018-07-14T09:24:31.225Z,100313.00
2018-07-14T09:26:58.779Z,100314.00
2018-07-14T09:29:26.382Z,100318.00
2018-07-14T09:31:54.808Z,100312.00
2018-07-14T09:34:39.903Z,100315.00
2018-07-14T09:37:07.583Z,100318.00
2018-07-14T09:39:35.171Z,100312.00
2018-07-14T09:42:02.715Z,100317.00
2018-07-14T09:44:30.750Z,100314.00
2018-07-14T09:46:58.352Z,100310.00
2018-07-14T09:49:26.224Z,100313.00
2018-07-14T09:51:53.932Z,100310.00
2018-07-14T09:54:21.528Z,100314.00
2018-07-14T09:56:49.340Z,100303.00
2018-07-14T09:59:17.463Z,100306.00
2018-07-14T10:01:45.044Z,100313.00
2018-07-14T10:04:12.622Z,100306.00
2018-07-14T10:06:40.466Z,100303.00
2018-07-14T10:09:08.170Z,100303.00
2018-07-14T10:11:35.748Z,100298.00
2018-07-14T10:14:04.081Z,100296.00
2018-07-14T10:16:32.124Z,100307.00
2018-07-14T10:18:59.701Z,100309.00
2018-07-14T10:21:27.420Z,100301.00
2018-07-14T10:23:55.032Z,100299.00
2018-07-14T10:26:22.662Z,100290.00
2018-07-14T10:28:50.203Z,100290.00
2018-07-14T10:31:18.068Z,100290.00
2018-07-14T10:33:45.832Z,100282.00
2018-07-14T10:36:13.523Z,100284.00
2018-07-14T10:38:41.378Z,100281.00
2018-07-14T10:41:09.228Z,100276.00
2018-07-14T10:43:36.852Z,100272.00
2018-07-14T10:46:04.500Z,100270.00
2018-07-14T10:48:32.219Z,100272.00
2018-07-14T10:50:59.779Z,100275.00
2018-07-14T10:53:27.339Z,100277.00
2018-07-14T10:55:55.453Z,100276.00
2018-07-14T10:58:22.999Z,100267.00
2018-07-14T11:00:50.595Z,100267.00
2018-07-14T11:03:18.653Z,100260.00
2018-07-14T11:05:46.235Z,100257.00
2018-07-14T11:08:13.791Z,100263.00
2018-07-14T11:10:41.653Z,100261.00
2018-07-14T11:13:09.288Z,100257.00
2018-07-14T11:15:44.094Z,100241.00
2018-07-14T11:18:26.113Z,100248.00
2018-07-14T11:21:09.786Z,100248.00
2018-07-14T11:23:38.017Z,100242.00
2018-07-14T11:26:05.789Z,100237.00
2018-07-14T11:28:33.488Z,100240.00
2018-07-14T11:31:01.116Z,100238.00
2018-07-14T11:33:28.695Z,100238.00
2018-07-14T11:35:56.121Z,100232.00
2018-07-14T11:38:23.756Z,100226.00
2018-07-14T11:40:51.391Z,100220.00
2018-07-14T11:43:19.219Z,100224.00
2018-07-14T11:45:46.814Z,100228.00
2018-07-14T11:48:14.423Z,100224.00
2018-07-14T11:50:42.400Z,100220.00
2018-07-14T11:53:09.990Z,100220.00
2018-07-14T11:55:37.583Z,100210.00
2018-07-14T11:58:05.433Z,100215.00
2018-07-14T12:00:33.053Z,100207.00
2018-07-14T12:03:01.030Z,100215.00
2018-07-14T12:05:28.606Z,100214.00
2018-07-14T12:07:56.193Z,100204.00
2018-07-14T12:10:24.155Z,100202.00
2018-07-14T12:12:51.768Z,100206.00
2018-07-14T12:15:19.492Z,100199.00
2018-07-14T12:17:47.064Z,100194.00
2018-07-14T12:20:14.658Z,100195.00
2018-07-14T12:22:42.471Z,100192.00
2018-07-14T12:25:10.792Z,100182.00
2018-07-14T12:27:38.413Z,100183.00
2018-07-14T12:30:06.031Z,100177.00
2018-07-14T12:32:33.631Z,100173.00
2018-07-14T12:35:01.262Z,100175.00
2018-07-14T12:37:28.848Z,100174.00
2018-07-14T12:39:56.404Z,100173.00
2018-07-14T12:42:24.235Z,100170.00
2018-07-14T12:44:51.824Z,100157.00
2018-07-14T12:47:19.437Z,100163.00
2018-07-14T12:49:47.209Z,100163.00
2018-07-14T12:52:14.799Z,100163.00
2018-07-14T12:54:42.363Z,100151.00
2018-07-14T12:57:10.396Z,100152.00
2018-07-14T12:59:38.074Z,100148.00
2018-07-14T13:02:05.943Z,100144.00
2018-07-14T13:04:34.003Z,100144.00
2018-07-14T13:07:02.459Z,100142.00
2018-07-14T13:09:30.163Z,100155.00
2018-07-14T13:11:57.988Z,100145.00
2018-07-14T13:14:25.637Z,100141.00
2018-07-14T13:16:53.404Z,100130.00
2018-07-14T13:19:20.988Z,100133.00
2018-07-14T13:21:48.556Z,100126.00
2018-07-14T13:24:16.412Z,100127.00
2018-07-14T13:26:43.752Z,100128.00
2018-07-14T13:29:11.364Z,100124.00
2018-07-14T13:31:39.321Z,100127.00
2018-07-14T13:34:06.952Z,100130.00
2018-07-14T13:36:34.557Z,100129.00
2018-07-14T13:39:02.400Z,100128.00
2018-07-14T13:41:29.977Z,100122.00
2018-07-14T13:43:57.535Z,100123.00
2018-07-14T13:46:25.312Z,100115.00
2018-07-14T13:48:52.847Z,100118.00
2018-07-14T13:51:20.447Z,100111.00
2018-07-14T13:53:48.263Z,100109.00
2018-07-14T13:56:15.843Z,100103.00
2018-07-14T13:58:43.470Z,100101.00
2018-07-14T14:01:11.332Z,100098.00
2018-07-14T14:03:38.909Z,100104.00
2018-07-14T14:06:06.484Z,100097.00
2018-07-14T14:08:34.448Z,100093.00
2018-07-14T14:11:02.045Z,100096.00
2018-07-14T14:13:29.637Z,100089.00
2018-07-14T14:15:57.640Z,100090.00
2018-07-14T14:18:25.220Z,100087.00
2018-07-14T14:20:52.853Z,100088.00
2018-07-14T14:23:20.644Z,100083.00
2018-07-14T14:25:48.255Z,100081.00
2018-07-14T14:28:15.821Z,100071.00
2018-07-14T14:30:50.596Z,100073.00
2018-07-14T14:33:34.383Z,100069.00
2018-07-14T14:36:09.843Z,100071.00
2018-07-14T14:38:37.399Z,100074.00
2018-07-14T14:41:32.132Z,100066.00
2018-07-14T14:44:24.077Z,100064.00
2018-07-14T14:47:29.919Z,100066.00
2018-07-14T14:50:43.551Z,100062.00
2018-07-14T14:53:14.323Z,100061.00
2018-07-14T14:56:19.887Z,100057.00
2018-07-14T14:58:55.258Z,100057.00
2018-07-14T15:01:24.056Z,100053.00
2018-07-14T15:03:51.921Z,100056.00
2018-07-14T15:06:19.515Z,100056.00
2018-07-14T15:08:47.075Z,100060.00
2018-07-14T15:11:15.090Z,100059.00
2018-07-14T15:13:42.659Z,100058.00
2018-07-14T15:16:10.235Z,100061.00
2018-07-14T15:18:37.940Z,100053.00
2018-07-14T15:21:05.668Z,100054.00
2018-07-14T15:23:33.351Z,100044.00
2018-07-14T15:26:01.349Z,100050.00
2018-07-14T15:28:28.724Z,100047.00
2018-07-14T15:30:56.724Z,100041.00
2018-07-14T15:33:24.426Z,100036.00
2018-07-14T15:35:51.921Z,100041.00
2018-07-14T15:38:19.740Z,100037.00
2018-07-14T15:40:47.581Z,100035.00
2018-07-14T15:43:15.188Z,100032.00
2018-07-14T15:45:42.779Z,100027.00
2018-07-14T15:48:10.531Z,100032.00
2018-07-14T15:50:38.102Z,100035.00
2018-07-14T15:53:06.726Z,100034.00
2018-07-14T15:55:34.419Z,100037.00
2018-07-14T15:58:02.049Z,100031.00
2018-07-14T16:00:29.866Z,100032.00
2018-07-14T16:02:57.523Z,100033.00
2018-07-14T16:05:25.107Z,100030.00
2018-07-14T16:07:52.989Z,100031.00
2018-07-14T16:10:20.559Z,100029.00
2018-07-14T16:12:48.139Z,100028.00
2018-07-14T16:15:15.884Z,100027.00
2018-07-14T16:17:43.456Z,100025.00
2018-07-14T16:20:11.060Z,100025.00
2018-07-14T16:22:38.684Z,100032.00
2018-07-14T16:25:06.336Z,100025.00
2018-07-14T16:27:33.941Z,100026.00
2018-07-14T16:30:02.418Z,100028.00
2018-07-14T16:32:29.992Z,100020.00
2018-07-14T16:34:57.924Z,100023.00
2018-07-14T16:37:25.817Z,100023.00
2018-07-14T16:39:53.366Z,100022.00
2018-07-14T16:42:21.231Z,100022.00
2018-07-14T16:44:48.915Z,100022.00
2018-07-14T16:47:16.559Z,100023.00
2018-07-14T16:49:44.543Z,100013.00
2018-07-14T16:52:12.212Z,100019.00
2018-07-14T16:54:40.190Z,100014.00
2018-07-14T16:57:07.890Z,100012.00
2018-07-14T16:59:35.493Z,100013.00
2018-07-14T17:02:03.334Z,100013.00
2018-07-14T17:04:30.938Z,100019.00
2018-07-14T17:06:58.472Z,100014.00
2018-07-14T17:09:26.379Z,100014.00
2018-07-14T17:11:54.031Z,100023.00
2018-07-14T17:14:21.612Z,100021.00
2018-07-14T17:16:49.773Z,100020.00
2018-07-14T17:19:17.573Z,100023.00
2018-07-14T17:21:45.410Z,100019.00
2018-07-14T17:24:13.012Z,100019.00
2018-07-14T17:26:40.687Z,100024.00
2018-07-14T17:29:08.321Z,100021.00
2018-07-14T17:31:36.013Z,100020.00
2018-07-14T17:34:03.668Z,100025.00
2018-07-14T17:36:34.248Z,100024.00
2018-07-14T17:39:05.647Z,100024.00
2018-07-14T17:41:33.333Z,100024.00
2018-07-14T17:44:00.987Z,100026.00
2018-07-14T17:46:28.666Z,100025.00
2018-07-14T17:48:56.288Z,100022.00
2018-07-14T17:51:24.188Z,100027.00
2018-07-14T17:53:51.720Z,100027.00
2018-07-14T17:56:19.428Z,100023.00
2018-07-14T17:58:47.417Z,100027.00
2018-07-14T18:01:15.375Z,100024.00
2018-07-14T18:03:42.956Z,100025.00
2018-07-14T18:06:10.614Z,100020.00
2018-07-14T18:08:38.270Z,100014.00
2018-07-14T18:11:05.938Z,100017.00
2018-07-14T18:13:33.824Z,100026.00
2018-07-14T18:16:01.527Z,100022.00
2018-07-14T18:18:29.376Z,100022.00
2018-07-14T18:20:57.130Z,100025.00
2018-07-14T18:23:24.710Z,100028.00
2018-07-14T18:25:52.320Z,100025.00
2018-07-14T18:28:20.099Z,100024.00
2018-07-14T18:30:48.317Z,100032.00
2018-07-14T18:33:16.552Z,100032.00
2018-07-14T18:35:44.659Z,100030.00
2018-07-14T18:38:12.303Z,100036.00
2018-07-14T18:40:39.892Z,100040.00
2018-07-14T18:43:07.788Z,100039.00
2018-07-14T18:45:35.371Z,100037.00
2018-07-14T18:48:02.965Z,100047.00
2018-07-14T18:50:30.860Z,100054.00
2018-07-14T18:52:58.499Z,100055.00
2018-07-14T18:55:26.437Z,100051.00
2018-07-14T18:57:54.011Z,100052.00
2018-07-14T19:00:21.631Z,100064.00
2018-07-14T19:02:49.857Z,100062.00
2018-07-14T19:05:17.400Z,100066.00
2018-07-14T19:07:45.049Z,100072.00
2018-07-14T19:10:12.923Z,100070.00
2018-07-14T19:12:40.501Z,100069.00
2018-07-14T19:15:08.151Z,100069.00
2018-07-14T19:17:35.713Z,100066.00
2018-07-14T19:20:03.498Z,100069.00
2018-07-14T19:22:31.145Z,100073.00
2018-07-14T19:24:58.812Z,100075.00
2018-07-14T19:27:26.455Z,100073.00
2018-07-14T19:29:54.489Z,100073.00
2018-07-14T19:32:22.040Z,100074.00
2018-07-14T19:34:49.777Z,100079.00
2018-07-14T19:37:17.973Z,100081.00
2018-07-14T19:39:45.618Z,100084.00
2018-07-14T19:42:13.254Z,100084.00
2018-07-14T19:44:41.392Z,100095.00
2018-07-14T19:47:09.000Z,100097.00
2018-07-14T19:49:36.585Z,100100.00
2018-07-14T19:52:04.599Z,100099.00
2018-07-14T19:54:32.219Z,100102.00
2018-07-14T19:56:59.844Z,100100.00
2018-07-14T19:59:27.803Z,100099.00
2018-07-14T20:01:55.423Z,100099.00
2018-07-14T20:04:23.007Z,100105.00
2018-07-14T20:06:50.953Z,100100.00
2018-07-14T20:09:18.503Z,100104.00
2018-07-14T20:12:11.557Z,100103.00
2018-07-14T20:14:39.122Z,100092.00
2018-07-14T20:17:06.765Z,100089.00
2018-07-14T20:19:33.985Z,100091.00
2018-07-14T20:22:01.540Z,100089.00
2018-07-14T20:24:29.114Z,100089.00
2018-07-14T20:26:57.028Z,100084.00
2018-07-14T20:29:24.600Z,100090.00
2018-07-14T20:31:52.185Z,100088.00
2018-07-14T20:34:20.020Z,100087.00
2018-07-14T20:36:47.648Z,100087.00
2018-07-14T20:39:16.118Z,100090.00
2018-07-14T20:41:43.718Z,100094.00
2018-07-14T20:44:11.297Z,100094.00
2018-07-14T20:46:39.176Z,100095.00
2018-07-14T20:49:06.746Z,100095.00
2018-07-14T20:51:34.305Z,100095.00
2018-07-14T20:54:02.179Z,100098.00
2018-07-14T20:56:29.771Z,100102.00
2018-07-14T20:58:57.355Z,100099.00
2018-07-14T21:01:25.013Z,100099.00
2018-07-14T21:03:52.660Z,100107.00
2018-07-14T21:06:20.341Z,100105.00
2018-07-14T21:08:48.178Z,100101.00
2018-07-14T21:11:15.793Z,100101.00
2018-07-14T21:13:43.572Z,100100.00
2018-07-14T21:16:11.403Z,100103.00
2018-07-14T21:18:39.063Z,100104.00
2018-07-14T21:21:07.090Z,100102.00
2018-07-14T21:23:36.490Z,100105.00
2018-07-14T21:26:04.308Z,100106.00
2018-07-14T21:28:32.188Z,100100.00
2018-07-14T21:30:59.818Z,100106.00
2018-07-14T21:33:27.477Z,100105.00
2018-07-14T21:35:55.387Z,100112.00
2018-07-14T21:38:23.005Z,100118.00
2018-07-14T21:40:50.486Z,100120.00
2018-07-14T21:43:18.281Z,100125.00
2018-07-14T21:45:45.872Z,100131.00
2018-07-14T21:51:53.183Z,100127.00
2018-07-14T21:54:20.803Z,100127.00
2018-07-14T21:56:48.385Z,100124.00
2018-07-14T21:59:16.223Z,100127.00
2018-07-14T22:01:50.721Z,100126.00
2018-07-14T22:04:19.028Z,100131.00
2018-07-14T22:06:46.645Z,100135.00
2018-07-14T22:09:14.257Z,100136.00
2018-07-14T22:11:42.141Z,100136.00
2018-07-14T22:14:09.824Z,100135.00
2018-07-14T22:16:37.423Z,100144.00
2018-07-14T22:19:05.080Z,100140.00
2018-07-14T22:21:32.712Z,100150.00
2018-07-14T22:24:00.687Z,100151.00
2018-07-14T22:26:28.278Z,100150.00
2018-07-14T22:28:55.889Z,100148.00
2018-07-14T22:31:23.812Z,100144.00
2018-07-14T22:33:51.428Z,100145.00
2018-07-14T22:36:19.490Z,100144.00
2018-07-14T22:38:47.063Z,100144.00
2018-07-14T22:41:14.927Z,100145.00
2018-07-14T22:43:42.839Z,100149.00
2018-07-14T22:46:10.416Z,100144.00
2018-07-14T22:48:38.121Z,100145.00
2018-07-14T22:51:05.809Z,100146.00
2018-07-14T22:53:33.395Z,100151.00
2018-07-14T22:56:01.027Z,100151.00
2018-07-14T22:58:28.853Z,100152.00
2018-07-14T23:00:56.459Z,100146.00
2018-07-14T23:03:24.064Z,100150.00
2018-07-14T23:05:51.952Z,100155.00
2018-07-14T23:08:19.604Z,100156.00
2018-07-14T23:10:47.257Z,100157.00
2018-07-14T23:13:15.161Z,100156.00
2018-07-14T23:15:42.779Z,100153.00
2018-07-14T23:18:10.406Z,100160.00
2018-07-14T23:20:38.258Z,100152.00
2018-07-14T23:23:05.918Z,100157.00
2018-07-14T23:25:33.609Z,100160.00
2018-07-14T23:28:01.533Z,100163.00
2018-07-14T23:30:29.126Z,100166.00
2018-07-14T23:32:56.749Z,100165.00
2018-07-14T23:35:24.351Z,100156.00
2018-07-14T23:37:52.012Z,100158.00
2018-07-14T23:40:19.903Z,100159.00
2018-07-14T23:42:47.928Z,100163.00
2018-07-14T23:45:15.526Z,100160.00
2018-07-14T23:47:43.311Z,100163.00
2018-07-14T23:50:10.928Z,100165.00
2018-07-14T23:52:38.554Z,100157.00
2018-07-14T23:55:06.212Z,100166.00
2018-07-14T23:57:33.823Z,100176.00
